sensor_id;sensor_type;location;lat;lon;timestamp;P1;durP1;ratioP1;P2;durP2;ratioP2
11473;SDS011;5793;52.238;13.438;2023-08-20T00:01:25;14.00;;;12.80;;
11473;SDS011;5793;52.238;13.438;2023-08-20T00:03:54;14.57;;;13.18;;
11473;SDS011;5793;52.238;13.438;2023-08-20T00:06:23;15.25;;;13.82;;
11473;SDS011;5793;52.238;13.438;2023-08-20T00:08:51;15.40;;;13.82;;
11473;SDS011;5793;52.238;13.438;2023-08-20T00:11:19;56.03;;;14.70;;
11473;SDS011;5793;52.238;13.438;2023-08-20T00:13:47;14.90;;;13.05;;
11473;SDS011;5793;52.238;13.438;2023-08-20T00:16:15;14.57;;;13.23;;
11473;SDS011;5793;52.238;13.438;2023-08-20T00:18:45;21.05;;;14.45;;
11473;SDS011;5793;52.238;13.438;2023-08-20T00:21:13;14.90;;;13.57;;
11473;SDS011;5793;52.238;13.438;2023-08-20T00:23:42;15.63;;;14.15;;
11473;SDS011;5793;52.238;13.438;2023-08-20T00:26:10;14.55;;;13.07;;
11473;SDS011;5793;52.238;13.438;2023-08-20T00:28:38;14.63;;;13.40;;
11473;SDS011;5793;52.238;13.438;2023-08-20T00:31:06;13.98;;;12.77;;
11473;SDS011;5793;52.238;13.438;2023-08-20T00:33:34;14.90;;;13.50;;
11473;SDS011;5793;52.238;13.438;2023-08-20T00:36:03;15.30;;;13.68;;
11473;SDS011;5793;52.238;13.438;2023-08-20T00:38:31;14.13;;;12.75;;
11473;SDS011;5793;52.238;13.438;2023-08-20T00:40:59;15.43;;;13.95;;
11473;SDS011;5793;52.238;13.438;2023-08-20T00:43:27;14.25;;;12.88;;
11473;SDS011;5793;52.238;13.438;2023-08-20T00:45:54;15.00;;;13.60;;
11473;SDS011;5793;52.238;13.438;2023-08-20T00:48:23;15.45;;;13.88;;
11473;SDS011;5793;52.238;13.438;2023-08-20T00:50:52;14.95;;;13.48;;
11473;SDS011;5793;52.238;13.438;2023-08-20T00:53:21;14.70;;;13.40;;
11473;SDS011;5793;52.238;13.438;2023-08-20T00:55:49;15.65;;;14.23;;
11473;SDS011;5793;52.238;13.438;2023-08-20T00:58:17;16.10;;;14.60;;
11473;SDS011;5793;52.238;13.438;2023-08-20T01:00:45;15.75;;;14.23;;
11473;SDS011;5793;52.238;13.438;2023-08-20T01:03:13;15.95;;;14.48;;
11473;SDS011;5793;52.238;13.438;2023-08-20T01:05:43;16.15;;;14.65;;
11473;SDS011;5793;52.238;13.438;2023-08-20T01:08:22;15.50;;;14.10;;
11473;SDS011;5793;52.238;13.438;2023-08-20T01:10:57;16.10;;;14.60;;
11473;SDS011;5793;52.238;13.438;2023-08-20T01:13:28;16.20;;;14.57;;
11473;SDS011;5793;52.238;13.438;2023-08-20T01:15:56;15.30;;;13.90;;
11473;SDS011;5793;52.238;13.438;2023-08-20T01:18:24;16.55;;;14.95;;
11473;SDS011;5793;52.238;13.438;2023-08-20T01:20:53;17.38;;;15.25;;
11473;SDS011;5793;52.238;13.438;2023-08-20T01:23:32;16.35;;;14.82;;
11473;SDS011;5793;52.238;13.438;2023-08-20T01:26:29;15.77;;;14.35;;
11473;SDS011;5793;52.238;13.438;2023-08-20T01:29:08;15.30;;;13.85;;
11473;SDS011;5793;52.238;13.438;2023-08-20T01:31:37;15.45;;;13.85;;
11473;SDS011;5793;52.238;13.438;2023-08-20T01:34:07;14.63;;;13.27;;
11473;SDS011;5793;52.238;13.438;2023-08-20T01:36:35;17.92;;;15.00;;
11473;SDS011;5793;52.238;13.438;2023-08-20T01:39:03;15.63;;;13.93;;
11473;SDS011;5793;52.238;13.438;2023-08-20T01:41:31;17.13;;;13.40;;
11473;SDS011;5793;52.238;13.438;2023-08-20T01:43:59;14.15;;;12.75;;
11473;SDS011;5793;52.238;13.438;2023-08-20T01:46:28;14.10;;;12.80;;
11473;SDS011;5793;52.238;13.438;2023-08-20T01:48:56;14.00;;;12.50;;
11473;SDS011;5793;52.238;13.438;2023-08-20T01:51:25;13.35;;;12.02;;
11473;SDS011;5793;52.238;13.438;2023-08-20T01:53:52;15.68;;;13.45;;
11473;SDS011;5793;52.238;13.438;2023-08-20T01:56:20;14.23;;;12.48;;
11473;SDS011;5793;52.238;13.438;2023-08-20T01:58:48;12.95;;;11.65;;
11473;SDS011;5793;52.238;13.438;2023-08-20T02:01:16;13.20;;;11.82;;
11473;SDS011;5793;52.238;13.438;2023-08-20T02:03:45;12.70;;;11.52;;
11473;SDS011;5793;52.238;13.438;2023-08-20T02:06:13;13.20;;;11.80;;
11473;SDS011;5793;52.238;13.438;2023-08-20T02:08:40;12.57;;;11.48;;
11473;SDS011;5793;52.238;13.438;2023-08-20T02:11:08;12.23;;;10.68;;
11473;SDS011;5793;52.238;13.438;2023-08-20T02:13:36;12.60;;;11.30;;
11473;SDS011;5793;52.238;13.438;2023-08-20T02:16:04;14.98;;;12.32;;
11473;SDS011;5793;52.238;13.438;2023-08-20T02:18:33;12.10;;;10.90;;
11473;SDS011;5793;52.238;13.438;2023-08-20T02:21:02;11.82;;;10.52;;
11473;SDS011;5793;52.238;13.438;2023-08-20T02:23:30;12.60;;;11.35;;
11473;SDS011;5793;52.238;13.438;2023-08-20T02:25:57;13.23;;;11.55;;
11473;SDS011;5793;52.238;13.438;2023-08-20T02:28:26;12.88;;;11.63;;
11473;SDS011;5793;52.238;13.438;2023-08-20T02:30:54;13.05;;;10.18;;
11473;SDS011;5793;52.238;13.438;2023-08-20T02:33:23;16.08;;;11.10;;
11473;SDS011;5793;52.238;13.438;2023-08-20T02:35:51;12.05;;;10.95;;
11473;SDS011;5793;52.238;13.438;2023-08-20T02:38:20;11.98;;;10.77;;
11473;SDS011;5793;52.238;13.438;2023-08-20T02:40:48;12.75;;;11.25;;
11473;SDS011;5793;52.238;13.438;2023-08-20T02:43:16;12.05;;;10.77;;
11473;SDS011;5793;52.238;13.438;2023-08-20T02:45:44;12.23;;;10.88;;
11473;SDS011;5793;52.238;13.438;2023-08-20T02:48:14;11.77;;;10.57;;
11473;SDS011;5793;52.238;13.438;2023-08-20T02:50:43;14.35;;;11.10;;
11473;SDS011;5793;52.238;13.438;2023-08-20T02:53:11;13.02;;;11.70;;
11473;SDS011;5793;52.238;13.438;2023-08-20T02:55:40;13.23;;;10.80;;
11473;SDS011;5793;52.238;13.438;2023-08-20T02:58:08;12.43;;;11.23;;
11473;SDS011;5793;52.238;13.438;2023-08-20T03:00:36;11.82;;;10.63;;
11473;SDS011;5793;52.238;13.438;2023-08-20T03:03:04;15.73;;;11.32;;
11473;SDS011;5793;52.238;13.438;2023-08-20T03:05:34;14.65;;;10.88;;
11473;SDS011;5793;52.238;13.438;2023-08-20T03:08:02;11.05;;;9.57;;
11473;SDS011;5793;52.238;13.438;2023-08-20T03:10:31;13.05;;;10.75;;
11473;SDS011;5793;52.238;13.438;2023-08-20T03:13:01;11.38;;;10.18;;
11473;SDS011;5793;52.238;13.438;2023-08-20T03:15:29;10.45;;;9.45;;
11473;SDS011;5793;52.238;13.438;2023-08-20T03:17:57;10.60;;;9.60;;
11473;SDS011;5793;52.238;13.438;2023-08-20T03:20:25;10.73;;;9.63;;
11473;SDS011;5793;52.238;13.438;2023-08-20T03:22:54;14.43;;;10.30;;
11473;SDS011;5793;52.238;13.438;2023-08-20T03:25:22;11.30;;;9.75;;
11473;SDS011;5793;52.238;13.438;2023-08-20T03:27:51;11.23;;;10.13;;
11473;SDS011;5793;52.238;13.438;2023-08-20T03:30:20;11.50;;;10.32;;
11473;SDS011;5793;52.238;13.438;2023-08-20T03:32:48;12.13;;;10.13;;
11473;SDS011;5793;52.238;13.438;2023-08-20T03:35:16;11.85;;;10.07;;
11473;SDS011;5793;52.238;13.438;2023-08-20T03:37:44;11.50;;;10.40;;
11473;SDS011;5793;52.238;13.438;2023-08-20T03:40:11;12.40;;;10.88;;
11473;SDS011;5793;52.238;13.438;2023-08-20T03:42:39;14.90;;;11.45;;
11473;SDS011;5793;52.238;13.438;2023-08-20T03:45:07;12.90;;;10.85;;
11473;SDS011;5793;52.238;13.438;2023-08-20T03:47:37;15.45;;;11.15;;
11473;SDS011;5793;52.238;13.438;2023-08-20T03:50:05;12.93;;;10.55;;
11473;SDS011;5793;52.238;13.438;2023-08-20T03:52:33;13.35;;;11.27;;
11473;SDS011;5793;52.238;13.438;2023-08-20T03:55:02;11.32;;;10.23;;
11473;SDS011;5793;52.238;13.438;2023-08-20T03:57:30;12.38;;;11.18;;
11473;SDS011;5793;52.238;13.438;2023-08-20T03:59:58;15.32;;;10.95;;
11473;SDS011;5793;52.238;13.438;2023-08-20T04:02:26;11.18;;;10.07;;
11473;SDS011;5793;52.238;13.438;2023-08-20T04:04:55;12.02;;;10.30;;
11473;SDS011;5793;52.238;13.438;2023-08-20T04:07:24;11.50;;;9.93;;
11473;SDS011;5793;52.238;13.438;2023-08-20T04:09:52;12.77;;;10.23;;
11473;SDS011;5793;52.238;13.438;2023-08-20T04:12:20;13.60;;;12.20;;
11473;SDS011;5793;52.238;13.438;2023-08-20T04:14:48;15.00;;;11.20;;
11473;SDS011;5793;52.238;13.438;2023-08-20T04:17:16;12.75;;;11.32;;
11473;SDS011;5793;52.238;13.438;2023-08-20T04:19:44;15.95;;;11.55;;
11473;SDS011;5793;52.238;13.438;2023-08-20T04:22:14;13.27;;;11.98;;
11473;SDS011;5793;52.238;13.438;2023-08-20T04:24:41;13.80;;;11.63;;
11473;SDS011;5793;52.238;13.438;2023-08-20T04:27:09;11.63;;;10.50;;
11473;SDS011;5793;52.238;13.438;2023-08-20T04:29:37;13.90;;;12.43;;
11473;SDS011;5793;52.238;13.438;2023-08-20T04:32:05;14.35;;;12.23;;
11473;SDS011;5793;52.238;13.438;2023-08-20T04:34:33;13.82;;;12.32;;
11473;SDS011;5793;52.238;13.438;2023-08-20T04:37:01;12.50;;;11.35;;
11473;SDS011;5793;52.238;13.438;2023-08-20T04:39:30;15.90;;;13.50;;
11473;SDS011;5793;52.238;13.438;2023-08-20T04:41:57;19.35;;;15.05;;
11473;SDS011;5793;52.238;13.438;2023-08-20T04:44:26;16.08;;;13.90;;
11473;SDS011;5793;52.238;13.438;2023-08-20T04:46:54;14.73;;;12.68;;
11473;SDS011;5793;52.238;13.438;2023-08-20T04:49:22;13.77;;;12.38;;
11473;SDS011;5793;52.238;13.438;2023-08-20T04:51:52;13.63;;;12.32;;
11473;SDS011;5793;52.238;13.438;2023-08-20T04:54:21;13.57;;;11.63;;
11473;SDS011;5793;52.238;13.438;2023-08-20T04:56:50;15.77;;;12.75;;
11473;SDS011;5793;52.238;13.438;2023-08-20T04:59:18;16.05;;;13.68;;
11473;SDS011;5793;52.238;13.438;2023-08-20T05:01:45;15.55;;;13.95;;
11473;SDS011;5793;52.238;13.438;2023-08-20T05:04:13;18.02;;;14.32;;
11473;SDS011;5793;52.238;13.438;2023-08-20T05:06:41;14.82;;;13.07;;
11473;SDS011;5793;52.238;13.438;2023-08-20T05:09:09;13.88;;;12.32;;
11473;SDS011;5793;52.238;13.438;2023-08-20T05:11:36;13.00;;;11.45;;
11473;SDS011;5793;52.238;13.438;2023-08-20T05:14:06;13.80;;;11.90;;
11473;SDS011;5793;52.238;13.438;2023-08-20T05:16:33;14.48;;;12.07;;
11473;SDS011;5793;52.238;13.438;2023-08-20T05:19:01;13.82;;;12.05;;
11473;SDS011;5793;52.238;13.438;2023-08-20T05:21:29;14.82;;;12.20;;
11473;SDS011;5793;52.238;13.438;2023-08-20T05:23:57;16.58;;;13.15;;
11473;SDS011;5793;52.238;13.438;2023-08-20T05:26:25;16.65;;;13.60;;
11473;SDS011;5793;52.238;13.438;2023-08-20T05:28:52;17.58;;;13.65;;
11473;SDS011;5793;52.238;13.438;2023-08-20T05:31:21;15.23;;;13.60;;
11473;SDS011;5793;52.238;13.438;2023-08-20T05:33:49;17.25;;;13.45;;
11473;SDS011;5793;52.238;13.438;2023-08-20T05:36:17;14.93;;;13.32;;
11473;SDS011;5793;52.238;13.438;2023-08-20T05:38:45;18.70;;;14.40;;
11473;SDS011;5793;52.238;13.438;2023-08-20T05:41:13;16.65;;;14.73;;
11473;SDS011;5793;52.238;13.438;2023-08-20T05:43:40;19.40;;;15.52;;
11473;SDS011;5793;52.238;13.438;2023-08-20T05:46:08;16.73;;;14.65;;
11473;SDS011;5793;52.238;13.438;2023-08-20T05:48:37;19.08;;;15.35;;
11473;SDS011;5793;52.238;13.438;2023-08-20T05:51:05;16.88;;;15.10;;
11473;SDS011;5793;52.238;13.438;2023-08-20T05:53:33;19.55;;;14.27;;
11473;SDS011;5793;52.238;13.438;2023-08-20T05:56:01;16.85;;;13.95;;
11473;SDS011;5793;52.238;13.438;2023-08-20T05:58:29;15.55;;;14.00;;
11473;SDS011;5793;52.238;13.438;2023-08-20T06:00:56;14.15;;;12.75;;
11473;SDS011;5793;52.238;13.438;2023-08-20T06:03:24;15.30;;;13.80;;
11473;SDS011;5793;52.238;13.438;2023-08-20T06:05:53;15.60;;;13.77;;
11473;SDS011;5793;52.238;13.438;2023-08-20T06:08:28;16.65;;;14.25;;
11473;SDS011;5793;52.238;13.438;2023-08-20T06:10:56;15.93;;;14.32;;
11473;SDS011;5793;52.238;13.438;2023-08-20T06:13:24;15.57;;;13.73;;
11473;SDS011;5793;52.238;13.438;2023-08-20T06:15:51;16.33;;;13.60;;
11473;SDS011;5793;52.238;13.438;2023-08-20T06:18:19;15.77;;;12.98;;
11473;SDS011;5793;52.238;13.438;2023-08-20T06:20:47;13.80;;;12.35;;
11473;SDS011;5793;52.238;13.438;2023-08-20T06:23:16;15.93;;;13.50;;
11473;SDS011;5793;52.238;13.438;2023-08-20T06:26:01;14.35;;;12.77;;
11473;SDS011;5793;52.238;13.438;2023-08-20T06:28:29;14.63;;;13.07;;
11473;SDS011;5793;52.238;13.438;2023-08-20T06:30:57;13.98;;;12.60;;
11473;SDS011;5793;52.238;13.438;2023-08-20T06:33:25;13.60;;;12.20;;
11473;SDS011;5793;52.238;13.438;2023-08-20T06:35:53;14.20;;;12.77;;
11473;SDS011;5793;52.238;13.438;2023-08-20T06:38:22;14.23;;;12.75;;
11473;SDS011;5793;52.238;13.438;2023-08-20T06:40:49;13.77;;;12.35;;
11473;SDS011;5793;52.238;13.438;2023-08-20T06:43:17;12.60;;;11.38;;
11473;SDS011;5793;52.238;13.438;2023-08-20T06:45:45;13.65;;;11.95;;
11473;SDS011;5793;52.238;13.438;2023-08-20T06:48:13;13.63;;;12.23;;
11473;SDS011;5793;52.238;13.438;2023-08-20T06:50:42;14.75;;;11.65;;
11473;SDS011;5793;52.238;13.438;2023-08-20T06:53:10;14.75;;;10.82;;
11473;SDS011;5793;52.238;13.438;2023-08-20T06:55:39;14.75;;;11.80;;
11473;SDS011;5793;52.238;13.438;2023-08-20T06:58:07;11.65;;;10.45;;
11473;SDS011;5793;52.238;13.438;2023-08-20T07:00:35;12.50;;;11.13;;
11473;SDS011;5793;52.238;13.438;2023-08-20T07:03:03;15.35;;;10.18;;
11473;SDS011;5793;52.238;13.438;2023-08-20T07:05:32;11.85;;;10.70;;
11473;SDS011;5793;52.238;13.438;2023-08-20T07:07:59;13.13;;;11.82;;
11473;SDS011;5793;52.238;13.438;2023-08-20T07:10:27;12.25;;;10.95;;
11473;SDS011;5793;52.238;13.438;2023-08-20T07:12:56;12.48;;;11.25;;
11473;SDS011;5793;52.238;13.438;2023-08-20T07:15:24;13.75;;;12.38;;
11473;SDS011;5793;52.238;13.438;2023-08-20T07:17:52;11.50;;;9.98;;
11473;SDS011;5793;52.238;13.438;2023-08-20T07:20:19;12.90;;;9.65;;
11473;SDS011;5793;52.238;13.438;2023-08-20T07:22:47;11.52;;;9.65;;
11473;SDS011;5793;52.238;13.438;2023-08-20T07:25:15;10.38;;;9.35;;
11473;SDS011;5793;52.238;13.438;2023-08-20T07:27:44;11.32;;;9.40;;
11473;SDS011;5793;52.238;13.438;2023-08-20T07:30:13;10.80;;;8.90;;
11473;SDS011;5793;52.238;13.438;2023-08-20T07:32:41;9.85;;;8.85;;
11473;SDS011;5793;52.238;13.438;2023-08-20T07:35:08;13.70;;;8.68;;
11473;SDS011;5793;52.238;13.438;2023-08-20T07:37:37;10.30;;;8.55;;
11473;SDS011;5793;52.238;13.438;2023-08-20T07:40:05;8.35;;;7.40;;
11473;SDS011;5793;52.238;13.438;2023-08-20T07:42:34;7.50;;;6.80;;
11473;SDS011;5793;52.238;13.438;2023-08-20T07:45:03;8.25;;;6.30;;
11473;SDS011;5793;52.238;13.438;2023-08-20T07:47:33;6.85;;;6.13;;
11473;SDS011;5793;52.238;13.438;2023-08-20T07:50:01;7.57;;;5.88;;
11473;SDS011;5793;52.238;13.438;2023-08-20T07:52:29;9.48;;;6.25;;
11473;SDS011;5793;52.238;13.438;2023-08-20T07:54:57;8.23;;;5.43;;
11473;SDS011;5793;52.238;13.438;2023-08-20T07:57:25;5.57;;;5.05;;
11473;SDS011;5793;52.238;13.438;2023-08-20T07:59:52;6.43;;;4.35;;
11473;SDS011;5793;52.238;13.438;2023-08-20T08:02:20;6.05;;;4.38;;
11473;SDS011;5793;52.238;13.438;2023-08-20T08:04:49;4.93;;;4.00;;
11473;SDS011;5793;52.238;13.438;2023-08-20T08:07:17;4.47;;;4.07;;
11473;SDS011;5793;52.238;13.438;2023-08-20T08:09:45;4.30;;;3.70;;
11473;SDS011;5793;52.238;13.438;2023-08-20T08:12:13;5.65;;;3.90;;
11473;SDS011;5793;52.238;13.438;2023-08-20T08:14:41;4.72;;;4.05;;
11473;SDS011;5793;52.238;13.438;2023-08-20T08:17:08;5.10;;;4.20;;
11473;SDS011;5793;52.238;13.438;2023-08-20T08:19:36;5.32;;;3.40;;
11473;SDS011;5793;52.238;13.438;2023-08-20T08:22:05;4.93;;;3.17;;
11473;SDS011;5793;52.238;13.438;2023-08-20T08:24:33;4.70;;;3.70;;
11473;SDS011;5793;52.238;13.438;2023-08-20T08:27:01;4.55;;;3.88;;
11473;SDS011;5793;52.238;13.438;2023-08-20T08:29:29;3.97;;;3.55;;
11473;SDS011;5793;52.238;13.438;2023-08-20T08:31:56;3.88;;;3.45;;
11473;SDS011;5793;52.238;13.438;2023-08-20T08:34:24;5.03;;;3.63;;
11473;SDS011;5793;52.238;13.438;2023-08-20T08:36:52;3.97;;;3.22;;
11473;SDS011;5793;52.238;13.438;2023-08-20T08:39:21;3.53;;;3.05;;
11473;SDS011;5793;52.238;13.438;2023-08-20T08:41:49;5.55;;;3.40;;
11473;SDS011;5793;52.238;13.438;2023-08-20T08:44:19;4.88;;;3.30;;
11473;SDS011;5793;52.238;13.438;2023-08-20T08:46:48;3.92;;;3.08;;
11473;SDS011;5793;52.238;13.438;2023-08-20T08:49:17;3.95;;;3.00;;
11473;SDS011;5793;52.238;13.438;2023-08-20T08:51:45;5.47;;;3.22;;
11473;SDS011;5793;52.238;13.438;2023-08-20T08:54:13;4.50;;;3.20;;
11473;SDS011;5793;52.238;13.438;2023-08-20T08:56:44;3.38;;;3.08;;
11473;SDS011;5793;52.238;13.438;2023-08-20T08:59:11;4.40;;;3.17;;
11473;SDS011;5793;52.238;13.438;2023-08-20T09:01:40;4.53;;;3.20;;
11473;SDS011;5793;52.238;13.438;2023-08-20T09:04:08;5.28;;;3.33;;
11473;SDS011;5793;52.238;13.438;2023-08-20T09:06:45;3.88;;;2.83;;
11473;SDS011;5793;52.238;13.438;2023-08-20T09:09:14;3.38;;;3.08;;
11473;SDS011;5793;52.238;13.438;2023-08-20T09:11:44;3.60;;;3.15;;
11473;SDS011;5793;52.238;13.438;2023-08-20T09:14:20;3.83;;;2.83;;
11473;SDS011;5793;52.238;13.438;2023-08-20T09:16:53;3.75;;;3.17;;
11473;SDS011;5793;52.238;13.438;2023-08-20T09:19:22;3.25;;;2.95;;
11473;SDS011;5793;52.238;13.438;2023-08-20T09:21:50;3.05;;;2.75;;
11473;SDS011;5793;52.238;13.438;2023-08-20T09:24:25;3.10;;;2.80;;
11473;SDS011;5793;52.238;13.438;2023-08-20T09:26:57;4.60;;;2.97;;
11473;SDS011;5793;52.238;13.438;2023-08-20T09:29:26;3.63;;;2.90;;
11473;SDS011;5793;52.238;13.438;2023-08-20T09:31:59;2.90;;;2.65;;
11473;SDS011;5793;52.238;13.438;2023-08-20T09:34:35;3.58;;;2.90;;
11473;SDS011;5793;52.238;13.438;2023-08-20T09:37:07;9.10;;;2.95;;
11473;SDS011;5793;52.238;13.438;2023-08-20T09:39:36;3.25;;;2.95;;
11473;SDS011;5793;52.238;13.438;2023-08-20T09:42:06;4.00;;;2.85;;
11473;SDS011;5793;52.238;13.438;2023-08-20T09:44:36;4.28;;;2.95;;
11473;SDS011;5793;52.238;13.438;2023-08-20T09:47:06;3.13;;;2.83;;
11473;SDS011;5793;52.238;13.438;2023-08-20T09:49:38;3.00;;;2.70;;
11473;SDS011;5793;52.238;13.438;2023-08-20T09:52:07;3.53;;;2.88;;
11473;SDS011;5793;52.238;13.438;2023-08-20T09:54:39;3.20;;;2.90;;
11473;SDS011;5793;52.238;13.438;2023-08-20T09:57:21;3.10;;;2.80;;
11473;SDS011;5793;52.238;13.438;2023-08-20T09:59:55;3.70;;;3.13;;
11473;SDS011;5793;52.238;13.438;2023-08-20T10:02:23;5.00;;;3.30;;
11473;SDS011;5793;52.238;13.438;2023-08-20T10:04:52;4.05;;;3.00;;
11473;SDS011;5793;52.238;13.438;2023-08-20T10:07:20;4.72;;;3.38;;
11473;SDS011;5793;52.238;13.438;2023-08-20T10:09:50;3.05;;;2.75;;
11473;SDS011;5793;52.238;13.438;2023-08-20T10:12:18;4.20;;;3.10;;
11473;SDS011;5793;52.238;13.438;2023-08-20T10:14:48;5.65;;;4.00;;
11473;SDS011;5793;52.238;13.438;2023-08-20T10:17:16;3.55;;;3.10;;
11473;SDS011;5793;52.238;13.438;2023-08-20T10:19:46;3.30;;;3.00;;
11473;SDS011;5793;52.238;13.438;2023-08-20T10:22:14;3.63;;;3.10;;
11473;SDS011;5793;52.238;13.438;2023-08-20T10:24:47;4.07;;;3.25;;
11473;SDS011;5793;52.238;13.438;2023-08-20T10:27:25;3.33;;;3.03;;
11473;SDS011;5793;52.238;13.438;2023-08-20T10:29:53;4.63;;;3.63;;
11473;SDS011;5793;52.238;13.438;2023-08-20T10:35:11;3.55;;;2.95;;
11473;SDS011;5793;52.238;13.438;2023-08-20T10:37:39;5.88;;;3.20;;
11473;SDS011;5793;52.238;13.438;2023-08-20T10:40:47;3.45;;;3.10;;
11473;SDS011;5793;52.238;13.438;2023-08-20T10:43:30;4.35;;;3.00;;
11473;SDS011;5793;52.238;13.438;2023-08-20T10:46:10;5.35;;;3.00;;
11473;SDS011;5793;52.238;13.438;2023-08-20T10:48:42;3.20;;;2.90;;
11473;SDS011;5793;52.238;13.438;2023-08-20T10:51:13;3.67;;;3.30;;
11473;SDS011;5793;52.238;13.438;2023-08-20T10:53:43;6.53;;;3.13;;
11473;SDS011;5793;52.238;13.438;2023-08-20T10:56:16;3.20;;;2.90;;
11473;SDS011;5793;52.238;13.438;2023-08-20T10:58:46;3.40;;;3.10;;
11473;SDS011;5793;52.238;13.438;2023-08-20T11:01:15;4.15;;;2.88;;
11473;SDS011;5793;52.238;13.438;2023-08-20T11:03:44;3.10;;;2.80;;
11473;SDS011;5793;52.238;13.438;2023-08-20T11:06:12;3.47;;;3.03;;
11473;SDS011;5793;52.238;13.438;2023-08-20T11:08:40;3.17;;;2.50;;
11473;SDS011;5793;52.238;13.438;2023-08-20T11:11:09;4.60;;;3.17;;
11473;SDS011;5793;52.238;13.438;2023-08-20T11:13:37;4.10;;;2.70;;
11473;SDS011;5793;52.238;13.438;2023-08-20T11:16:07;3.53;;;2.60;;
11473;SDS011;5793;52.238;13.438;2023-08-20T11:18:35;3.22;;;2.70;;
11473;SDS011;5793;52.238;13.438;2023-08-20T11:21:03;2.95;;;2.70;;
11473;SDS011;5793;52.238;13.438;2023-08-20T11:23:31;3.95;;;2.80;;
11473;SDS011;5793;52.238;13.438;2023-08-20T11:25:59;3.33;;;3.00;;
11473;SDS011;5793;52.238;13.438;2023-08-20T11:28:28;5.35;;;3.03;;
11473;SDS011;5793;52.238;13.438;2023-08-20T11:30:56;3.92;;;3.00;;
11473;SDS011;5793;52.238;13.438;2023-08-20T11:33:25;3.28;;;2.97;;
11473;SDS011;5793;52.238;13.438;2023-08-20T11:35:53;3.35;;;2.70;;
11473;SDS011;5793;52.238;13.438;2023-08-20T11:38:22;3.97;;;2.70;;
11473;SDS011;5793;52.238;13.438;2023-08-20T11:40:51;3.60;;;2.40;;
11473;SDS011;5793;52.238;13.438;2023-08-20T11:43:19;3.35;;;2.28;;
11473;SDS011;5793;52.238;13.438;2023-08-20T11:45:47;3.92;;;2.60;;
11473;SDS011;5793;52.238;13.438;2023-08-20T11:48:16;2.85;;;2.63;;
11473;SDS011;5793;52.238;13.438;2023-08-20T11:50:45;4.00;;;2.45;;
11473;SDS011;5793;52.238;13.438;2023-08-20T11:53:13;3.83;;;2.67;;
11473;SDS011;5793;52.238;13.438;2023-08-20T11:55:41;3.00;;;2.50;;
11473;SDS011;5793;52.238;13.438;2023-08-20T11:58:10;2.78;;;2.55;;
11473;SDS011;5793;52.238;13.438;2023-08-20T12:00:38;2.28;;;2.08;;
11473;SDS011;5793;52.238;13.438;2023-08-20T12:03:07;3.88;;;2.20;;
11473;SDS011;5793;52.238;13.438;2023-08-20T12:05:36;3.92;;;2.70;;
11473;SDS011;5793;52.238;13.438;2023-08-20T12:08:14;2.47;;;2.28;;
11473;SDS011;5793;52.238;13.438;2023-08-20T12:10:43;3.30;;;2.53;;
11473;SDS011;5793;52.238;13.438;2023-08-20T12:13:11;2.75;;;2.55;;
11473;SDS011;5793;52.238;13.438;2023-08-20T12:15:39;2.78;;;2.50;;
11473;SDS011;5793;52.238;13.438;2023-08-20T12:18:07;3.15;;;2.50;;
11473;SDS011;5793;52.238;13.438;2023-08-20T12:20:36;3.92;;;2.58;;
11473;SDS011;5793;52.238;13.438;2023-08-20T12:23:05;3.97;;;2.40;;
11473;SDS011;5793;52.238;13.438;2023-08-20T12:25:35;2.30;;;2.10;;
11473;SDS011;5793;52.238;13.438;2023-08-20T12:28:03;3.58;;;2.53;;
11473;SDS011;5793;52.238;13.438;2023-08-20T12:30:32;2.90;;;2.60;;
11473;SDS011;5793;52.238;13.438;2023-08-20T12:33:04;3.05;;;2.65;;
11473;SDS011;5793;52.238;13.438;2023-08-20T12:35:33;2.60;;;2.40;;
11473;SDS011;5793;52.238;13.438;2023-08-20T12:38:01;3.72;;;2.85;;
11473;SDS011;5793;52.238;13.438;2023-08-20T12:40:30;2.97;;;2.50;;
11473;SDS011;5793;52.238;13.438;2023-08-20T12:42:59;4.00;;;2.75;;
11473;SDS011;5793;52.238;13.438;2023-08-20T12:45:27;2.80;;;2.50;;
11473;SDS011;5793;52.238;13.438;2023-08-20T12:47:55;2.85;;;2.47;;
11473;SDS011;5793;52.238;13.438;2023-08-20T12:50:27;3.28;;;2.65;;
11473;SDS011;5793;52.238;13.438;2023-08-20T12:52:55;2.83;;;2.63;;
11473;SDS011;5793;52.238;13.438;2023-08-20T12:55:23;3.85;;;2.80;;
11473;SDS011;5793;52.238;13.438;2023-08-20T12:57:52;3.30;;;3.00;;
11473;SDS011;5793;52.238;13.438;2023-08-20T13:00:22;3.20;;;2.90;;
11473;SDS011;5793;52.238;13.438;2023-08-20T13:02:51;3.08;;;2.75;;
11473;SDS011;5793;52.238;13.438;2023-08-20T13:05:20;2.90;;;2.60;;
11473;SDS011;5793;52.238;13.438;2023-08-20T13:07:49;2.88;;;2.55;;
11473;SDS011;5793;52.238;13.438;2023-08-20T13:10:17;2.60;;;2.40;;
11473;SDS011;5793;52.238;13.438;2023-08-20T13:12:47;3.88;;;2.63;;
11473;SDS011;5793;52.238;13.438;2023-08-20T13:15:16;3.58;;;2.72;;
11473;SDS011;5793;52.238;13.438;2023-08-20T13:17:47;5.00;;;2.70;;
11473;SDS011;5793;52.238;13.438;2023-08-20T13:20:16;2.78;;;2.58;;
11473;SDS011;5793;52.238;13.438;2023-08-20T13:22:47;2.95;;;2.60;;
11473;SDS011;5793;52.238;13.438;2023-08-20T13:25:15;2.40;;;2.20;;
11473;SDS011;5793;52.238;13.438;2023-08-20T13:27:43;3.08;;;2.70;;
11473;SDS011;5793;52.238;13.438;2023-08-20T13:30:11;3.35;;;2.30;;
11473;SDS011;5793;52.238;13.438;2023-08-20T13:32:39;2.78;;;2.25;;
11473;SDS011;5793;52.238;13.438;2023-08-20T13:35:08;4.45;;;2.55;;
11473;SDS011;5793;52.238;13.438;2023-08-20T13:37:37;4.40;;;2.25;;
11473;SDS011;5793;52.238;13.438;2023-08-20T13:40:05;2.53;;;2.20;;
11473;SDS011;5793;52.238;13.438;2023-08-20T13:42:35;3.30;;;2.50;;
11473;SDS011;5793;52.238;13.438;2023-08-20T13:45:04;4.68;;;2.05;;
11473;SDS011;5793;52.238;13.438;2023-08-20T13:47:33;3.65;;;2.00;;
11473;SDS011;5793;52.238;13.438;2023-08-20T13:50:01;2.92;;;2.10;;
11473;SDS011;5793;52.238;13.438;2023-08-20T13:52:32;4.15;;;1.88;;
11473;SDS011;5793;52.238;13.438;2023-08-20T13:55:00;3.28;;;2.38;;
11473;SDS011;5793;52.238;13.438;2023-08-20T13:57:28;2.60;;;2.05;;
11473;SDS011;5793;52.238;13.438;2023-08-20T13:59:56;3.00;;;2.10;;
11473;SDS011;5793;52.238;13.438;2023-08-20T14:02:25;2.20;;;1.90;;
11473;SDS011;5793;52.238;13.438;2023-08-20T14:04:52;3.10;;;2.00;;
11473;SDS011;5793;52.238;13.438;2023-08-20T14:07:20;4.20;;;2.28;;
11473;SDS011;5793;52.238;13.438;2023-08-20T14:09:51;2.25;;;2.05;;
11473;SDS011;5793;52.238;13.438;2023-08-20T14:12:18;2.83;;;2.13;;
11473;SDS011;5793;52.238;13.438;2023-08-20T14:14:47;4.60;;;2.40;;
11473;SDS011;5793;52.238;13.438;2023-08-20T14:17:15;2.78;;;2.35;;
11473;SDS011;5793;52.238;13.438;2023-08-20T14:19:43;6.03;;;2.35;;
11473;SDS011;5793;52.238;13.438;2023-08-20T14:22:11;2.97;;;2.25;;
11473;SDS011;5793;52.238;13.438;2023-08-20T14:24:39;2.72;;;2.10;;
11473;SDS011;5793;52.238;13.438;2023-08-20T14:27:08;3.42;;;2.13;;
11473;SDS011;5793;52.238;13.438;2023-08-20T14:29:36;3.42;;;2.30;;
11473;SDS011;5793;52.238;13.438;2023-08-20T14:32:04;4.18;;;2.22;;
11473;SDS011;5793;52.238;13.438;2023-08-20T14:34:32;3.20;;;2.15;;
11473;SDS011;5793;52.238;13.438;2023-08-20T14:36:59;3.30;;;2.10;;
11473;SDS011;5793;52.238;13.438;2023-08-20T14:39:27;2.63;;;2.13;;
11473;SDS011;5793;52.238;13.438;2023-08-20T14:41:57;3.03;;;1.80;;
11473;SDS011;5793;52.238;13.438;2023-08-20T14:44:27;2.00;;;1.80;;
11473;SDS011;5793;52.238;13.438;2023-08-20T14:46:55;5.03;;;2.10;;
11473;SDS011;5793;52.238;13.438;2023-08-20T14:49:23;2.95;;;1.80;;